Time;durP1;ratioP1;P1;durP2;ratioP2;P2;SDS_P1;SDS_P2;PMS_P1;PMS_P2;Temp;Humidity;BMP_temperature;BMP_pressure;BME280_temperature;BME280_humidity;BME280_pressure;Samples;Min_cycle;Max_cycle;Signal;HPM_P1;HPM_P2
2022/11/05 00:10:33;;;;;;;13.27;11.98;;;;;;;28.24;55.84;101182.94;4996267;28;65680;-37
2022/11/05 00:18:43;;;;;;;13.13;12.10;;;;;;;28.34;56.27;101196.91;4998016;28;70226;-37
2022/11/05 00:26:57;;;;;;;12.82;11.73;;;;;;;28.17;57.03;101165.88;4997242;28;66818;-37
2022/11/05 00:29:28;;;;;;;19.92;11.73;;;;;;;28.41;57.00;101195.09;4999592;28;69690;-35
2022/11/05 00:31:58;;;;;;;34.20;22.33;;;;;;;28.51;61.08;101222.59;4990853;28;66625;-36
2022/11/05 00:34:28;;;;;;;52.20;32.90;;;;;;;28.36;63.73;101186.78;4996131;28;70493;-37
2022/11/05 00:36:58;;;;;;;59.78;37.95;;;;;;;28.60;65.51;101225.16;4997320;28;66261;-36
2022/11/05 00:39:28;;;;;;;57.13;39.75;;;;;;;28.64;68.43;101231.81;4993837;28;70460;-36
2022/11/05 00:45:00;;;;;;;79.53;42.03;;;;;;;28.66;71.76;101235.16;4996795;28;70598;-34
2022/11/05 00:50:22;;;;;;;63.80;40.25;;;;;;;28.65;73.55;101236.22;4994261;28;69818;-38
2022/11/05 00:52:55;;;;;;;66.47;40.97;;;;;;;28.72;74.16;101261.38;4998475;28;66944;-37
2022/11/05 00:55:36;;;;;;;63.35;39.47;;;;;;;28.75;73.56;101260.97;4994947;28;70481;-38
2022/11/05 00:58:12;;;;;;;52.35;36.97;;;;;;;28.24;72.74;101162.16;4996968;28;66601;-38
2022/11/05 01:00:44;;;;;;;60.38;38.03;;;;;;;28.82;73.35;101267.25;4993778;28;69521;-36
2022/11/05 01:03:16;;;;;;;57.83;36.83;;;;;;;28.85;72.99;101260.63;4996541;28;65356;-38
2022/11/05 01:05:50;;;;;;;53.35;34.67;;;;;;;28.44;72.93;101199.28;4995485;28;69393;-37
2022/11/05 01:08:23;;;;;;;52.58;35.53;;;;;;;28.90;73.10;101269.81;4997236;28;67042;-39
2022/11/05 01:10:55;;;;;;;52.08;34.60;;;;;;;28.91;73.54;101271.47;4975199;28;69094;-38
2022/11/05 01:13:28;;;;;;;60.90;36.63;;;;;;;28.45;73.18;101193.72;4991024;28;65643;-39
2022/11/05 01:16:05;;;;;;;53.10;34.38;;;;;;;28.96;72.89;101290.63;4995216;28;69167;-37
2022/11/05 01:18:37;;;;;;;59.00;33.75;;;;;;;28.96;72.03;101274.41;4994909;28;66661;-39
2022/11/05 01:21:14;;;;;;;49.92;33.28;;;;;;;28.50;72.45;101203.91;4993118;28;70408;-37
2022/11/05 01:23:44;;;;;;;50.05;33.55;;;;;;;28.98;72.97;101285.03;4995439;28;66120;-38
2022/11/05 01:26:14;;;;;;;54.97;34.67;;;;;;;29.03;72.11;101300.63;4994439;28;70298;-39
2022/11/05 01:28:50;;;;;;;46.83;33.20;;;;;;;28.99;73.15;101284.00;4995576;28;65160;-38
2022/11/05 01:31:21;;;;;;;48.15;33.22;;;;;;;28.96;72.76;101273.59;4991794;28;70105;-38
2022/11/05 01:33:51;;;;;;;52.45;35.35;;;;;;;29.06;72.65;101298.41;4990139;28;65349;-38
2022/11/05 01:36:21;;;;;;;47.88;33.88;;;;;;;29.07;72.99;101307.34;4995329;28;69378;-38
2022/11/05 01:38:51;;;;;;;53.35;34.40;;;;;;;28.94;72.12;101279.16;4989904;28;66324;-38
2022/11/05 01:41:21;;;;;;;42.72;31.25;;;;;;;29.12;70.73;101305.72;4985484;28;69330;-38
2022/11/05 01:43:54;;;;;;;38.53;27.42;;;;;;;28.70;69.67;101231.88;4998398;28;65796;-38
2022/11/05 01:46:35;;;;;;;35.13;27.42;;;;;;;29.17;69.83;101313.25;4992948;28;70428;-38
2022/11/05 01:52:21;;;;;;;28.02;24.35;;;;;;;29.09;69.10;101299.88;4991380;28;70382;-39
2022/11/05 01:54:51;;;;;;;;;;;;;;;28.92;70.65;101321.75;4997728;28;65355;-37
2022/11/05 01:57:21;;;;;;;29.88;24.13;;;;;;;29.24;69.43;101322.19;5000813;28;68498;-37
2022/11/05 01:59:55;;;;;;;27.40;23.67;;;;;;;28.94;68.77;101262.97;4999563;28;66286;-38
2022/11/05 02:02:26;;;;;;;30.95;24.83;;;;;;;29.34;69.26;101327.28;4999862;28;70872;-38
2022/11/05 02:05:03;;;;;;;30.50;26.73;;;;;;;28.85;70.23;101239.88;4994070;28;66266;-40
2022/11/05 02:07:33;;;;;;;30.00;25.23;;;;;;;29.28;69.82;101309.97;4995691;28;69596;-39
2022/11/05 02:10:16;;;;;;;31.73;25.90;;;;;;;29.16;69.64;101279.13;4995221;28;65361;-39
2022/11/05 02:12:47;;;;;;;30.00;25.35;;;;;;;29.47;69.60;101330.03;4994581;28;70643;-38
2022/11/05 02:15:27;;;;;;;28.50;24.98;;;;;;;29.44;69.15;101313.38;4996395;28;65353;-39
2022/11/05 02:17:57;;;;;;;30.88;24.20;;;;;;;29.52;69.13;101326.72;4996909;28;70735;-38
2022/11/05 02:20:41;;;;;;;29.35;24.38;;;;;;;29.12;69.79;101256.28;4996675;28;65767;-38
2022/11/05 02:23:22;;;;;;;28.10;24.25;;;;;;;29.57;69.55;101329.66;4998848;28;69772;-38
2022/11/05 02:26:09;;;;;;;29.48;23.52;;;;;;;29.61;69.80;101336.31;4998429;28;65718;-39
2022/11/05 02:29:01;;;;;;;27.67;22.38;;;;;;;29.63;69.57;101337.00;4996954;28;70164;-39
2022/11/05 02:31:53;;;;;;;25.65;22.80;;;;;;;29.65;69.91;101334.09;4995699;28;65891;-39
2022/11/05 02:34:48;;;;;;;24.95;22.45;;;;;;;29.03;70.30;101247.50;4991785;28;70067;-40
2022/11/05 02:37:58;;;;;;;28.98;22.88;;;;;;;29.58;70.50;101337.56;4988233;28;65870;-39
2022/11/05 02:40:53;;;;;;;27.83;21.75;;;;;;;29.29;69.95;101272.97;4986087;28;70253;-40
2022/11/05 02:43:23;;;;;;;24.75;22.25;;;;;;;29.71;69.05;101336.81;4996157;28;66494;-38
2022/11/05 02:46:00;;;;;;;28.73;22.67;;;;;;;29.74;68.75;101349.09;4993758;28;70595;-39
2022/11/05 02:48:48;;;;;;;24.42;21.70;;;;;;;29.25;69.00;101256.31;4988605;28;65665;-38
2022/11/05 02:51:38;;;;;;;26.23;21.98;;;;;;;29.73;68.95;101332.06;4994885;28;69774;-39
2022/11/05 02:54:22;;;;;;;26.08;21.33;;;;;;;29.79;68.50;101333.94;4996503;28;66338;-39
2022/11/05 02:56:55;;;;;;;26.83;21.88;;;;;;;29.83;69.07;101346.00;4998048;28;70109;-38
2022/11/05 02:59:26;;;;;;;23.70;21.02;;;;;;;29.73;68.90;101318.53;4995479;28;65613;-38
2022/11/05 03:01:57;;;;;;;24.17;21.60;;;;;;;29.88;68.50;101331.06;4998917;28;70099;-38
2022/11/05 03:04:29;;;;;;;24.17;20.90;;;;;;;29.37;68.41;101249.31;4998353;28;66379;-38
2022/11/05 03:07:19;;;;;;;21.80;19.75;;;;;;;29.92;68.59;101332.31;4997304;28;69929;-39
2022/11/05 03:10:25;;;;;;;22.38;20.05;;;;;;;29.83;68.20;101332.50;4997312;28;66344;-38
2022/11/05 03:13:21;;;;;;;21.95;19.73;;;;;;;29.81;68.46;101298.56;4997267;28;70096;-38
2022/11/05 03:16:00;;;;;;;26.33;21.13;;;;;;;29.08;68.48;101169.38;4978437;28;65216;-37
2022/11/05 03:18:50;;;;;;;38.72;23.20;;;;;;;29.65;69.37;101261.13;4995401;28;70523;-38
2022/11/05 03:21:38;;;;;;;31.70;22.58;;;;;;;29.89;69.61;101322.72;4998653;28;66843;-39
2022/11/05 03:24:33;;;;;;;33.38;22.75;;;;;;;29.78;69.07;101294.44;4997311;28;70498;-39
2022/11/05 03:27:30;;;;;;;37.30;22.55;;;;;;;29.31;69.23;101216.84;4997085;28;64105;-38
2022/11/05 03:30:54;;;;;;;30.75;21.77;;;;;;;29.75;68.79;101294.81;4991830;28;70133;-36
2022/11/05 03:33:29;;;;;;;26.60;22.38;;;;;;;29.60;68.09;101253.56;4996879;28;66296;-39
2022/11/05 03:36:04;;;;;;;28.92;21.15;;;;;;;29.76;68.61;101280.28;4994991;28;69589;-36
2022/11/05 03:38:39;;;;;;;35.80;23.38;;;;;;;29.77;67.89;101281.94;4996033;28;66836;-39
2022/11/05 03:41:13;;;;;;;49.58;20.95;;;;;;;29.79;68.90;101279.88;4992347;28;69550;-39
2022/11/05 03:43:51;;;;;;;39.03;22.27;;;;;;;29.79;69.16;101269.06;4996067;28;65525;-38
2022/11/05 03:49:54;;;;;;;24.10;18.67;;;;;;;29.67;69.20;101265.28;5008883;28;65880;-38
2022/11/05 03:52:29;;;;;;;25.88;16.83;;;;;;;29.67;68.26;101265.28;4995374;28;70626;-39
2022/11/05 03:55:01;;;;;;;22.50;16.75;;;;;;;29.57;67.11;101264.78;4992836;28;66079;-40
2022/11/05 03:57:36;;;;;;;34.65;16.13;;;;;;;29.53;66.76;101258.97;4991973;28;70375;-40
2022/11/05 04:00:09;;;;;;;29.52;14.18;;;;;;;29.46;66.31;101257.25;4994802;28;66364;-40
2022/11/05 04:02:41;;;;;;;21.63;14.15;;;;;;;29.44;65.61;101254.75;4991772;28;70805;-37
2022/11/05 04:05:12;;;;;;;34.35;14.63;;;;;;;29.43;64.12;101250.38;4997125;28;66526;-38
2022/11/05 04:13:24;;;;;;;13.55;11.23;;;;;;;29.29;62.06;101233.28;4992419;28;70480;-40
2022/11/05 04:18:44;;;;;;;11.82;10.90;;;;;;;29.05;60.49;101195.97;4989491;28;70507;-39
2022/11/05 04:24:08;;;;;;;18.52;11.13;;;;;;;29.21;59.96;101222.66;4991157;28;69810;-37
2022/11/05 04:26:42;;;;;;;13.55;10.30;;;;;;;29.17;59.46;101206.00;4993657;28;66234;-39
2022/11/05 04:32:00;;;;;;;18.63;9.77;;;;;;;29.11;58.66;101196.00;4993637;28;66488;-40
2022/11/05 04:34:30;;;;;;;17.20;10.43;;;;;;;29.13;58.09;101177.72;4996253;28;70416;-38
2022/11/05 04:37:00;;;;;;;10.55;9.57;;;;;;;29.18;58.10;101187.94;4997229;28;66359;-37
2022/11/05 04:39:30;;;;;;;12.05;9.27;;;;;;;29.15;57.08;101181.06;4990795;28;70413;-38
2022/11/05 04:42:00;;;;;;;9.27;8.35;;;;;;;29.15;57.08;101180.22;4993636;28;66199;-38
2022/11/05 04:44:30;;;;;;;13.20;9.43;;;;;;;29.17;56.67;101167.38;4994603;28;69551;-38
2022/11/05 04:47:00;;;;;;;10.45;9.43;;;;;;;29.15;55.67;101169.41;4994788;28;65685;-39
2022/11/05 04:49:30;;;;;;;10.05;9.02;;;;;;;28.95;55.08;101137.72;4995554;28;70154;-39
2022/11/05 04:52:00;;;;;;;21.88;8.68;;;;;;;29.07;55.04;101161.50;4995576;28;66796;-38
2022/11/05 04:54:30;;;;;;;8.98;8.10;;;;;;;29.01;55.10;101157.69;4995098;28;69182;-41
2022/11/05 04:57:00;;;;;;;8.70;8.10;;;;;;;29.02;54.56;101139.63;4996414;28;66779;-39
2022/11/05 04:59:30;;;;;;;9.25;8.65;;;;;;;29.02;53.52;101147.72;4995391;28;70567;-41
2022/11/05 05:02:00;;;;;;;10.40;8.60;;;;;;;28.98;53.90;101141.06;4995501;28;65429;-40
2022/11/05 05:04:30;;;;;;;10.00;8.35;;;;;;;28.67;53.55;101086.50;4993753;28;70607;-38
2022/11/05 05:07:00;;;;;;;8.20;7.70;;;;;;;28.95;53.25;101129.63;4996719;28;65731;-40
2022/11/05 05:09:30;;;;;;;8.95;8.07;;;;;;;28.78;53.93;101103.16;4993846;28;69843;-37
2022/11/05 05:12:01;;;;;;;8.75;8.13;;;;;;;28.94;53.77;101135.22;4993607;28;66135;-38
2022/11/05 05:14:31;;;;;;;8.77;8.00;;;;;;;28.82;53.14;101110.66;4993607;28;69542;-40
2022/11/05 05:17:01;;;;;;;7.80;7.32;;;;;;;28.77;52.62;101083.44;4994054;28;65612;-38
2022/11/05 05:21:37;;;;;;;9.30;8.05;;;;;;;28.98;52.56;101108.66;4991063;28;70023;-39
2022/11/05 05:22:24;;;;;;;10.63;7.15;;;;;;;29.09;53.18;101113.50;4992670;28;64762;-39
2022/11/05 05:24:58;;;;;;;18.45;7.22;;;;;;;29.11;52.91;101111.41;4990427;28;70777;-39
2022/11/05 05:27:29;;;;;;;15.10;7.25;;;;;;;29.22;52.40;101110.81;4991781;28;65952;-42
2022/11/05 05:29:59;;;;;;;7.78;6.90;;;;;;;29.27;53.13;101108.34;4991799;28;70110;-39
2022/11/05 05:32:29;;;;;;;15.75;7.43;;;;;;;29.31;52.80;101098.81;4989128;28;66448;-38
2022/11/05 05:34:59;;;;;;;13.88;7.22;;;;;;;29.39;52.21;101098.63;4992860;28;70494;-38
2022/11/05 05:37:29;;;;;;;9.93;6.47;;;;;;;29.43;52.05;101090.94;4994948;28;66992;-38
2022/11/05 05:39:59;;;;;;;8.35;6.85;;;;;;;29.48;51.18;101084.91;4991666;28;70026;-38
2022/11/05 05:42:29;;;;;;;17.25;7.72;;;;;;;29.49;50.37;101079.28;4995040;28;66538;-39
2022/11/05 05:44:59;;;;;;;9.50;6.75;;;;;;;29.51;49.96;101079.94;4994959;28;69403;-39
2022/11/05 05:47:30;;;;;;;7.57;6.93;;;;;;;29.54;49.98;101075.97;4992689;28;66518;-39
2022/11/05 05:50:00;;;;;;;8.02;7.32;;;;;;;29.50;49.13;101059.31;4995770;28;69201;-41
2022/11/05 05:52:30;;;;;;;10.90;6.88;;;;;;;29.49;48.59;101040.63;4997875;28;66293;-41
2022/11/05 05:54:59;;;;;;;7.05;6.47;;;;;;;29.63;48.26;101058.53;4994486;28;69062;-40
2022/11/05 05:57:29;;;;;;;9.88;6.78;;;;;;;29.63;48.09;101053.13;4999111;28;66514;-40
2022/11/05 06:00:00;;;;;;;8.10;7.32;;;;;;;29.51;48.16;101016.94;4998759;28;70528;-39
2022/11/05 06:02:39;;;;;;;11.63;7.45;;;;;;;29.62;47.22;101037.94;4997337;28;66327;-43
2022/11/05 06:05:10;;;;;;;7.53;7.00;;;;;;;29.64;47.11;101032.34;4997636;28;69483;-39
2022/11/05 06:07:39;;;;;;;10.30;6.78;;;;;;;29.65;47.30;101028.63;4995367;28;65740;-38
2022/11/05 06:10:09;;;;;;;7.45;6.72;;;;;;;29.65;46.67;101029.44;4999925;28;69596;-41
2022/11/05 06:12:40;;;;;;;7.43;7.00;;;;;;;29.65;46.20;101029.44;4998180;28;65944;-41
2022/11/05 06:15:10;;;;;;;7.78;7.22;;;;;;;29.60;46.10;101015.69;4996076;28;69243;-38
2022/11/05 06:17:43;;;;;;;7.68;7.07;;;;;;;29.22;45.57;100948.72;4996932;28;66114;-39
2022/11/05 06:20:13;;;;;;;7.50;6.90;;;;;;;29.60;45.46;100999.47;5000176;28;70846;-40
2022/11/05 06:22:42;;;;;;;7.57;6.90;;;;;;;29.64;45.56;101005.31;5011653;28;66776;-41
2022/11/05 06:25:12;;;;;;;6.97;6.45;;;;;;;29.64;45.07;101011.53;4998291;28;68467;-40
2022/11/05 06:27:42;;;;;;;8.40;6.88;;;;;;;29.65;45.79;100997.00;4997829;28;66560;-37
2022/11/05 06:30:13;;;;;;;7.15;6.65;;;;;;;29.62;45.56;100998.22;4997748;28;69687;-40
2022/11/05 06:32:44;;;;;;;7.45;6.85;;;;;;;29.66;45.12;100993.25;4997791;28;67184;-40
2022/11/05 06:35:14;;;;;;;7.28;6.70;;;;;;;29.67;45.19;100992.22;4999442;28;69863;-38
2022/11/05 06:37:44;;;;;;;7.82;6.82;;;;;;;29.61;44.84;100991.16;4991406;28;66275;-38
2022/11/05 06:40:13;;;;;;;7.40;6.78;;;;;;;29.72;45.25;100992.41;4999632;28;69792;-42
2022/11/05 06:42:43;;;;;;;9.50;6.65;;;;;;;29.70;44.41;100982.84;4993010;28;65677;-38
2022/11/05 06:45:13;;;;;;;10.60;7.50;;;;;;;29.72;44.38;100987.00;4997874;28;70197;-37
2022/11/05 06:47:43;;;;;;;10.38;7.75;;;;;;;29.74;44.88;100986.78;4980551;28;64467;-38
2022/11/05 06:50:13;;;;;;;9.55;6.95;;;;;;;29.63;44.04;100955.81;4996614;28;69389;-38
2022/11/05 06:52:43;;;;;;;6.97;6.57;;;;;;;29.80;44.80;100983.25;4995704;28;66170;-39
2022/11/05 06:55:13;;;;;;;7.70;6.97;;;;;;;29.50;44.53;100928.78;4997034;28;69685;-42
2022/11/05 06:57:43;;;;;;;7.50;6.90;;;;;;;29.83;43.91;100977.41;4995814;28;66310;-38
2022/11/05 07:00:14;;;;;;;8.15;7.20;;;;;;;29.71;44.16;100952.91;4995427;28;70283;-40
2022/11/05 07:02:44;;;;;;;7.68;7.07;;;;;;;29.87;44.13;100972.44;4995975;28;66214;-41
2022/11/05 07:05:15;;;;;;;7.70;7.10;;;;;;;29.91;43.92;100968.25;4995227;28;68348;-40
2022/11/05 07:07:45;;;;;;;7.22;6.72;;;;;;;29.92;43.81;100956.38;4995174;28;65707;-41
2022/11/05 07:10:17;;;;;;;7.75;7.00;;;;;;;29.89;44.40;100932.47;4995399;28;70105;-41
2022/11/05 07:12:48;;;;;;;7.60;6.97;;;;;;;29.96;43.77;100950.34;4980992;28;65837;-40
2022/11/05 07:15:18;;;;;;;13.35;7.60;;;;;;;29.95;44.01;100942.44;4994890;28;68984;-41
2022/11/05 07:17:48;;;;;;;7.85;7.25;;;;;;;29.97;43.70;100940.34;4998490;28;65640;-41
2022/11/05 07:20:18;;;;;;;8.48;7.20;;;;;;;30.01;43.86;100928.06;5003086;28;69334;-38
2022/11/05 07:22:48;;;;;;;8.27;7.38;;;;;;;30.04;44.98;100931.19;4997949;28;66619;-42
2022/11/05 07:25:19;;;;;;;8.35;7.53;;;;;;;29.98;44.89;100921.22;4994136;28;69566;-39
2022/11/05 07:27:49;;;;;;;8.15;7.35;;;;;;;30.00;44.06;100918.28;4995126;28;65706;-39
2022/11/05 07:30:19;;;;;;;8.52;7.55;;;;;;;29.99;43.83;100916.63;4998018;28;70674;-39
2022/11/05 07:32:49;;;;;;;18.83;7.63;;;;;;;30.04;43.93;100925.78;4996064;28;65967;-38
2022/11/05 07:35:19;;;;;;;8.77;7.72;;;;;;;30.10;44.10;100915.97;4977763;28;69953;-38
2022/11/05 07:37:52;;;;;;;17.85;9.88;;;;;;;29.54;49.41;100820.03;5000081;28;66652;-39
2022/11/05 07:40:24;;;;;;;67.70;11.32;;;;;;;30.22;49.88;100905.31;5000762;28;70492;-40
2022/11/05 07:42:58;;;;;;;67.35;11.50;;;;;;;29.42;52.28;100759.59;4998146;28;66091;-39
2022/11/05 07:45:29;;;;;;;43.55;13.15;;;;;;;30.41;59.06;100904.41;4986675;28;70674;-38
2022/11/05 07:48:01;;;;;;;36.77;13.10;;;;;;;30.46;61.07;100895.63;4997821;28;66193;-40
2022/11/05 07:50:32;;;;;;;;;;;;;;;30.42;63.07;100906.06;4998001;28;70298;-39
2022/11/05 07:53:11;;;;;;;35.47;14.32;;;;;;;30.23;61.93;100823.94;5000730;28;65611;-38
2022/11/05 07:55:42;;;;;;;36.97;13.32;;;;;;;30.40;62.14;100836.97;5000197;28;69877;-40
2022/11/05 07:58:13;;;;;;;30.08;13.95;;;;;;;30.85;62.19;100899.97;5000062;28;65797;-39
2022/11/05 08:00:43;;;;;;;30.27;14.80;;;;;;;30.95;62.24;100904.91;4997479;28;70095;-37
2022/11/05 08:03:16;;;;;;;22.17;13.02;;;;;;;31.04;61.44;100897.34;4998332;28;65730;-40
2022/11/05 08:05:47;;;;;;;30.25;12.98;;;;;;;31.10;61.22;100901.88;4997242;28;70239;-39
2022/11/05 08:08:18;;;;;;;19.20;12.25;;;;;;;31.14;61.62;100901.19;5000319;28;65617;-40
2022/11/05 08:10:48;;;;;;;30.50;13.45;;;;;;;31.10;62.10;100889.16;4999320;28;69343;-39
2022/11/05 08:13:18;;;;;;;25.42;12.23;;;;;;;31.22;62.91;100899.28;4997590;28;66683;-39
2022/11/05 08:15:48;;;;;;;24.45;12.55;;;;;;;31.19;62.26;100886.16;4997857;28;69594;-37
2022/11/05 08:18:19;;;;;;;20.75;12.43;;;;;;;31.28;61.36;100898.38;4997057;28;66073;-37
2022/11/05 08:20:50;;;;;;;26.30;11.27;;;;;;;31.35;60.83;100902.69;4999713;28;70355;-42
2022/11/05 08:23:19;;;;;;;25.40;11.20;;;;;;;31.30;60.51;100896.28;4997135;28;68081;-38
2022/11/05 08:25:49;;;;;;;20.63;11.02;;;;;;;31.43;59.82;100907.03;4994005;28;70658;-40
2022/11/05 08:28:20;;;;;;;16.58;10.10;;;;;;;31.42;59.66;100902.66;4997024;28;65427;-39
2022/11/05 08:30:55;;;;;;;26.17;10.45;;;;;;;31.10;60.07;100848.50;4997578;28;69488;-38
2022/11/05 08:33:26;;;;;;;13.43;10.30;;;;;;;31.55;60.20;100899.81;4995306;28;66935;-40
2022/11/05 08:36:00;;;;;;;10.90;10.00;;;;;;;31.57;60.42;100897.72;4998720;28;71538;-41
2022/11/05 08:38:30;;;;;;;15.18;10.23;;;;;;;31.78;60.28;100909.16;4998759;28;66427;-39
2022/11/05 08:41:00;;;;;;;12.73;9.75;;;;;;;31.88;59.64;100909.47;4998995;28;70049;-39
2022/11/05 08:43:31;;;;;;;14.68;10.48;;;;;;;31.93;60.50;100906.94;4998678;28;66770;-38
2022/11/05 08:46:01;;;;;;;16.58;11.15;;;;;;;31.87;60.73;100891.50;4998238;28;70022;-38
2022/11/05 08:48:31;;;;;;;24.02;10.80;;;;;;;31.99;59.84;100903.31;4991261;28;66605;-39
2022/11/05 08:51:00;;;;;;;10.82;9.73;;;;;;;31.98;58.88;100909.81;4998315;28;70018;-39
2022/11/05 08:53:30;;;;;;;13.60;10.00;;;;;;;31.57;58.88;100853.50;4997711;28;67063;-38
2022/11/05 08:56:00;;;;;;;20.98;9.57;;;;;;;31.88;57.58;100909.47;4999237;28;69673;-37
2022/11/05 08:58:31;;;;;;;18.60;10.55;;;;;;;31.87;58.39;100913.22;5000093;28;66723;-35
2022/11/05 09:01:04;;;;;;;12.47;10.10;;;;;;;31.41;58.84;100837.81;4994995;28;69857;-40
2022/11/05 09:03:34;;;;;;;13.95;10.02;;;;;;;31.89;58.88;100919.25;4998409;28;65683;-38
2022/11/05 09:06:04;;;;;;;14.90;9.70;;;;;;;31.85;57.72;100919.94;4999348;28;69508;-39
2022/11/05 09:08:34;;;;;;;30.70;11.70;;;;;;;31.86;59.04;100921.59;4998010;28;65957;-37
2022/11/05 09:11:05;;;;;;;29.02;11.35;;;;;;;31.89;60.02;100921.97;4998441;28;69895;-40
2022/11/05 09:13:35;;;;;;;39.65;11.65;;;;;;;31.77;59.60;100907.50;4996434;28;64483;-38
2022/11/05 09:16:06;;;;;;;28.30;11.27;;;;;;;31.88;58.84;100924.91;4996721;28;70337;-38
2022/11/05 09:18:37;;;;;;;26.92;10.57;;;;;;;31.52;57.82;100873.16;4997109;28;65902;-38
2022/11/05 09:21:08;;;;;;;21.08;11.88;;;;;;;31.90;60.15;100929.06;5012089;28;70050;-38
2022/11/05 09:23:38;;;;;;;35.38;12.38;;;;;;;31.91;61.01;100936.16;4999156;28;67522;-39
2022/11/05 09:26:10;;;;;;;25.27;11.40;;;;;;;31.91;62.08;100941.59;4996181;28;69434;-38
2022/11/05 09:28:42;;;;;;;22.23;11.47;;;;;;;31.90;62.02;100945.34;5001430;28;66227;-43
2022/11/05 09:31:13;;;;;;;23.33;11.90;;;;;;;31.75;61.04;100931.31;4997487;28;69792;-40
2022/11/05 09:33:42;;;;;;;31.33;11.73;;;;;;;31.90;59.92;100950.78;4997734;28;66563;-41
2022/11/05 09:36:13;;;;;;;34.40;11.75;;;;;;;31.65;58.75;100914.72;4997721;28;70134;-39
2022/11/05 09:38:43;;;;;;;32.78;11.02;;;;;;;31.91;57.74;100957.88;4998137;28;66550;-36
2022/11/05 09:41:21;;;;;;;41.30;9.73;;;;;;;31.77;56.43;100938.16;4995956;28;69465;-38
2022/11/05 09:44:02;;;;;;;44.60;10.75;;;;;;;31.66;56.51;100924.53;4994588;28;66101;-36
2022/11/05 09:46:45;;;;;;;18.85;9.60;;;;;;;31.90;56.77;100983.31;5000804;28;69909;-38
2022/11/05 09:49:41;;;;;;;22.65;9.50;;;;;;;31.39;56.61;100895.78;5001302;28;66309;-38
2022/11/05 09:52:24;;;;;;;24.23;9.35;;;;;;;31.51;56.45;100914.88;5016377;28;70512;-38
2022/11/05 09:55:36;;;;;;;16.55;8.98;;;;;;;31.87;56.61;100980.22;5003193;28;66722;-39
2022/11/05 09:58:22;;;;;;;18.83;8.95;;;;;;;31.60;56.94;100940.63;5001820;28;70242;-38
2022/11/05 10:00:58;;;;;;;20.35;9.13;;;;;;;31.51;56.77;100930.28;4999187;28;65568;-40
2022/11/05 10:03:50;;;;;;;34.28;11.88;;;;;;;31.52;56.42;100934.69;5000965;28;70358;-37
2022/11/05 10:06:23;;;;;;;27.25;10.90;;;;;;;31.89;56.19;101008.78;5015214;28;66012;-38
2022/11/05 10:09:08;;;;;;;24.27;10.93;;;;;;;31.88;56.09;100999.00;5000313;28;70541;-38
2022/11/05 10:11:44;;;;;;;18.38;10.65;;;;;;;31.08;56.31;100877.72;4994086;28;65960;-37
2022/11/05 10:14:31;;;;;;;29.92;10.52;;;;;;;31.74;56.82;100983.91;4998822;28;70767;-39
2022/11/05 10:17:12;;;;;;;19.42;11.88;;;;;;;31.64;57.42;100942.91;4992698;28;65649;-38
2022/11/05 10:19:50;;;;;;;25.42;11.18;;;;;;;31.67;58.12;100935.13;4995880;28;70241;-38
2022/11/05 10:22:21;;;;;;;28.13;10.55;;;;;;;32.18;58.28;101017.25;4999201;28;66685;-42
2022/11/05 10:24:54;;;;;;;22.05;10.07;;;;;;;31.75;58.57;100953.00;5001572;28;70345;-38
2022/11/05 10:27:28;;;;;;;16.13;9.48;;;;;;;32.24;58.50;101033.50;4995270;28;65989;-38
2022/11/05 10:29:59;;;;;;;18.38;9.68;;;;;;;32.26;58.82;101035.97;4987693;28;69416;-42
2022/11/05 10:32:42;;;;;;;18.05;9.40;;;;;;;32.25;59.01;101061.44;5000681;28;65777;-40
2022/11/05 10:35:21;;;;;;;14.57;9.18;;;;;;;31.85;59.42;100980.44;4996221;28;70890;-40
2022/11/05 10:37:54;;;;;;;13.63;9.85;;;;;;;32.31;58.98;101057.84;5011231;28;66776;-42
2022/11/05 10:40:52;;;;;;;12.93;9.27;;;;;;;32.25;59.39;101056.03;5000106;28;70085;-39
2022/11/05 10:43:42;;;;;;;15.35;8.63;;;;;;;32.27;59.30;101060.19;4999894;28;67077;-42
2022/11/05 10:46:45;;;;;;;12.93;9.30;;;;;;;32.24;59.50;101070.66;5011874;28;69675;-39
2022/11/05 10:49:51;;;;;;;24.58;9.38;;;;;;;32.09;59.37;101040.31;4999002;28;65981;-41
2022/11/05 10:52:33;;;;;;;16.17;9.30;;;;;;;31.95;59.12;101018.75;4999321;28;68970;-41
2022/11/05 10:55:31;;;;;;;16.00;9.45;;;;;;;32.24;59.34;101070.66;4997411;28;65595;-39
2022/11/05 10:58:20;;;;;;;11.20;8.50;;;;;;;32.23;59.36;101068.97;4999098;28;70332;-41
2022/11/05 11:00:52;;;;;;;12.88;9.10;;;;;;;32.30;59.12;101071.66;4998258;28;65648;-38
2022/11/05 11:03:45;;;;;;;11.10;9.07;;;;;;;32.21;59.72;101074.66;5000107;28;70601;-40
2022/11/05 11:06:24;;;;;;;24.58;9.43;;;;;;;32.26;59.84;101080.25;4997912;28;65958;-40
2022/11/05 11:08:58;;;;;;;10.32;8.52;;;;;;;32.25;59.74;101077.75;4998788;28;69077;-40
2022/11/05 11:11:35;;;;;;;15.15;8.82;;;;;;;32.24;59.57;101081.53;4999105;28;66513;-40
2022/11/05 11:14:11;;;;;;;13.45;9.18;;;;;;;32.21;59.77;101081.97;4998221;28;70065;-41
2022/11/05 11:16:47;;;;;;;13.95;9.13;;;;;;;32.11;59.76;101103.34;4996296;28;65675;-39
2022/11/05 11:19:20;;;;;;;15.90;9.30;;;;;;;31.99;60.13;101109.53;4997715;28;70534;-40
2022/11/05 11:22:03;;;;;;;15.35;9.07;;;;;;;31.85;60.39;101113.38;4993406;28;66603;-42
2022/11/05 11:25:17;;;;;;;11.15;8.95;;;;;;;31.69;61.28;101122.06;4994919;28;70388;-40
2022/11/05 11:27:48;;;;;;;12.52;9.07;;;;;;;31.71;60.48;101126.22;4998724;28;65283;-41
2022/11/05 11:30:19;;;;;;;9.98;8.15;;;;;;;31.35;60.76;101067.22;4996020;28;70499;-41
2022/11/05 11:32:49;;;;;;;9.70;8.60;;;;;;;31.59;61.62;101126.09;4995573;28;65483;-41
2022/11/05 11:35:23;;;;;;;15.90;8.75;;;;;;;31.12;61.90;101057.75;4981246;28;70206;-39
2022/11/05 11:37:54;;;;;;;12.85;8.32;;;;;;;31.54;62.10;101136.75;4996963;28;66630;-42
2022/11/05 11:40:31;;;;;;;14.75;8.95;;;;;;;31.55;61.99;101143.84;4990077;28;69155;-40
2022/11/05 11:43:24;;;;;;;9.68;8.40;;;;;;;31.39;62.56;101118.06;5000776;28;65902;-42
2022/11/05 11:45:55;;;;;;;;;;;;;;;31.28;63.24;101147.72;4995136;28;69368;-43
2022/11/05 11:48:35;;;;;;;10.30;8.77;;;;;;;31.48;63.43;101158.47;4989308;28;66432;-43
2022/11/05 11:51:30;;;;;;;13.48;10.13;;;;;;;31.39;63.45;101161.44;4997148;28;69592;-39
2022/11/05 11:54:01;;;;;;;10.85;9.20;;;;;;;31.45;63.83;101176.00;4999173;28;65695;-40
2022/11/05 11:56:43;;;;;;;14.67;9.67;;;;;;;30.83;64.55;101082.72;4999422;28;69936;-43
2022/11/05 11:59:23;;;;;;;;;;;;;;;31.21;65.31;101174.03;5000557;28;65689;-39
2022/11/05 12:02:51;;;;;;;13.15;10.02;;;;;;;30.84;65.21;101106.03;4992940;28;70083;-42
2022/11/05 12:05:43;;;;;;;17.73;10.80;;;;;;;31.32;65.10;101192.31;4996360;28;66731;-42
2022/11/05 12:08:32;;;;;;;14.38;11.15;;;;;;;31.34;65.32;101190.22;4997999;28;70541;-40
2022/11/05 12:11:26;;;;;;;18.45;10.85;;;;;;;31.28;65.88;101202.75;5001410;28;66619;-40
2022/11/05 12:14:08;;;;;;;25.80;11.32;;;;;;;31.36;65.92;101217.97;4996140;28;69309;-40
2022/11/05 12:17:02;;;;;;;20.08;11.35;;;;;;;31.10;66.78;101195.34;4998355;28;66188;-43
2022/11/05 12:20:02;;;;;;;15.30;11.93;;;;;;;31.26;67.28;101231.13;4996762;28;70333;-42
2022/11/05 12:23:09;;;;;;;12.43;9.95;;;;;;;31.03;66.40;101210.78;5000057;28;66527;-46
2022/11/05 12:26:03;;;;;;;28.88;12.20;;;;;;;31.14;65.18;101233.66;4994388;28;69574;-42
2022/11/05 12:28:56;;;;;;;25.83;11.07;;;;;;;30.71;65.48;101172.72;4995968;28;66226;-41
2022/11/05 12:32:29;;;;;;;26.73;11.25;;;;;;;30.72;66.42;101190.63;4994805;28;70087;-43
2022/11/05 12:35:29;;;;;;;22.38;11.48;;;;;;;30.33;66.58;101133.84;4997595;28;65538;-40
2022/11/05 12:38:05;;;;;;;20.63;11.65;;;;;;;30.63;67.47;101186.47;4999701;28;70173;-41
2022/11/05 12:41:05;;;;;;;15.88;11.02;;;;;;;31.17;68.07;101287.44;4994270;28;66470;-40
2022/11/05 12:44:17;;;;;;;20.50;10.65;;;;;;;31.15;70.22;101298.50;4995771;28;69797;-42